• Join FlightAware (Why Join?)
  • Login
  • US Flag 
03:50PM EDT


 

Airport Tracker/Info


-or-


 

Live Flight TrackerFlight Track Log ✈ N588AC ✈ 21-Apr-2013 ✈ KBCB - KBKL

Flight Track Log - Related Links

Times and Time Zones

All times are in EDT time to prevent confusion due to time zone crossing. See the N588AC flight status page for this flight to view local times or setup timezone preferences in your user account.

Time Position Orientation Groundspeed Altitude Reporting Facility
EDT Latitude Longitude Course Direction KTS MPH feet Rate Location/Type
05:32PM 37.2622 -80.3231 317° Northwest 167 192 9,100  Level Washington Center
05:34PM 37.3681 -80.4825 310° West 259 298 15,900 2,760 Climbing Indianapolis Center
05:35PM 37.4194 -80.5456 316° Northwest 264 304 18,200 2,340 Climbing Indianapolis Center
05:36PM 37.5532 -80.8198 322° Northwest  Level FlightAware Approximate
05:36PM 37.4753 -80.6131 316° Northwest 282 325 20,800  Level Indianapolis Center
05:37PM 37.6158 -80.8883 317° Northwest  Level FlightAware Approximate
05:37PM 37.5389 -80.7006 313° West 288 331 22,800  Level Indianapolis Center
05:38PM 37.6069 -80.7839 316° Northwest 337 388 23,100 120 Climbing Indianapolis Center
05:39PM 37.6775 -80.8758 314° West 368 423 23,100 -120 Level Indianapolis Center
05:40PM 37.7442 -80.9644 314° West 361 415 22,900 420 Descending Indianapolis Center
05:41PM 37.8236 -81.0689 314° West 350 403 24,000 1,080 Climbing Indianapolis Center
05:42PM 37.8831 -81.1514 312° West 347 399 25,200 1,500 Climbing Indianapolis Center
05:43PM 37.9489 -81.2400 313° West 346 398 27,200 1,740 Climbing Indianapolis Center
05:44PM 38.0192 -81.3247 316° Northwest 347 399 28,900 1,380 Climbing Indianapolis Center
05:45PM 38.0989 -81.4306 314° West 345 397 30,100 1,020 Climbing Indianapolis Center
05:46PM 38.1689 -81.5261 313° West 364 419 31,000 420 Climbing Indianapolis Center
05:47PM 38.2483 -81.6183 318° Northwest 386 444 31,000 -60 Level Indianapolis Center
05:48PM 38.3631 -81.6547 346° North 422 486 30,900 -60 Descending Indianapolis Center
05:49PM 38.4803 -81.6803 350° North 425 489 30,900  Level Indianapolis Center
05:50PM 38.5983 -81.7058 350° North 424 488 30,900  Level Indianapolis Center
05:51PM 38.7189 -81.7336 350° North 428 493 30,900  Level Indianapolis Center
05:52PM 38.8367 -81.7586 351° North 422 486 30,900  Level Indianapolis Center
05:53PM 38.9519 -81.7844 350° North 417 480 30,900  Level Indianapolis Center
05:54PM 39.0686 -81.8100 350° North 421 484 30,900  Level Indianapolis Center
05:56PM 39.2081 -81.8400 351° North 421 484 30,900  Level Indianapolis Center
05:57PM 39.3233 -81.8672 350° North 420 483 30,900 -840 Level Indianapolis Center
05:58PM 39.4386 -81.8933 350° North 419 482 29,200 -2,040 Descending Indianapolis Center
05:59PM 39.5536 -81.9197 350° North 417 480 26,800 -2,280 Descending Indianapolis Center
06:00PM 39.6661 -81.9442 351° North 409 471 24,500 -1,500 Descending Indianapolis Center
06:01PM 39.7833 -81.9708 350° North 383 441 23,700 -1,140 Descending Indianapolis Center
06:02PM 39.8878 -81.9953 350° North 377 434 22,200 -1,500 Descending Indianapolis Center
06:03PM 39.9856 -82.0178 350° North 358 412 20,600 -1,080 Descending Indianapolis Center
06:04PM 40.0825 -82.0397 350° North 352 405 20,000 -840 Descending Indianapolis Center
06:05PM 40.1817 -82.0633 350° North 357 411 18,900 -960 Descending Indianapolis Center
06:06PM 40.2800 -82.0858 350° North 341 392 18,000 -1,140 Descending Indianapolis Center
06:07PM 40.3700 -82.1075 350° North 328 377 16,600 -1,380 Descending Indianapolis Center
06:08PM 40.4758 -82.1117 358° North 325 374 15,100 -780 Descending Cleveland Center
06:09PM 40.5392 -82.0475 38° Northeast 281 323 15,000 -60 Descending Cleveland Center
06:10PM 40.6069 -81.9806 37° Northeast 281 323 15,000 -180 Level Cleveland Center
06:11PM 40.6786 -81.9081 37° Northeast 311 358 14,700 -900 Descending Cleveland Center
06:12PM 40.7503 -81.8356 37° Northeast 326 375 13,300 -1,380 Descending Cleveland Center
06:13PM 40.7986 -81.7900 36° Northeast 323 372 12,400 -1,500 Descending Cleveland Center
06:13PM 40.8197 -81.7656 41° Northeast 321 369 11,800 -1,500 Descending Cleveland Center
06:13PM 40.8578 -81.7278 37° Northeast 317 365 11,200 -480 Descending Cleveland Center
06:15PM 40.9272 -81.6631 35° Northeast 310 357 11,100 -180 Descending Cleveland Center
06:15PM 40.9606 -81.6556 10° North 310 357 11,000  Descending Cleveland Center
06:15PM 41.0064 -81.6561 359° North 309 356 11,100 -300 Climbing Cleveland Center
06:16PM 41.0481 -81.6514 North 296 341 10,700 -1,200 Descending Cleveland Center
06:16PM 41.0836 -81.6492 North 311 358 10,000 -1,740 Descending Cleveland Center
06:17PM 41.1275 -81.6472 North 289 333 9,000 -1,800 Descending Cleveland Center
06:17PM 41.1669 -81.6450 North 263 303 8,000 -1,800 Descending Cleveland Center
06:18PM 41.2025 -81.6428 North 282 325 7,200 -1,920 Descending Cleveland Center
06:18PM 41.2381 -81.6433 359° North 277 319 6,300 -1,800 Descending Cleveland Center
06:19PM 41.2797 -81.6386 North 271 312 5,400 -1,800 Descending Cleveland Center
06:19PM 41.3089 -81.6392 359° North 271 312 4,700 -2,100 Descending Cleveland Center
06:20PM 41.3569 -81.6372 North 266 306 3,300 -1,620 Descending Cleveland Center
06:20PM 41.3778 -81.6375 359° North 245 282 3,100 -240 Descending Cleveland Center
06:21PM 41.4214 -81.6325 North 238 274 3,100 -180 Level Cleveland Center
06:22PM 41.4903 -81.6419 354° North 216 249 2,800 -540 Descending Cleveland Center
06:23PM 41.5419 -81.6761 334° Northwest 187 215 2,000 -660 Descending Cleveland Center
06:25PM 41.5167 -81.6667 62° Northeast  Level FlightAware Approximate
06:25PM 41.5064 -81.7061 62° Northeast 111 128 800  Level Cleveland Center
06:27PM 41.5175 -81.6833 62° Northeast  Level Estimated
06:34PM 41.5175 -81.6833 62° Northeast  Level Estimated